Greenview, CA (96037)

7:08 PM PDT on August 29, 2014 (GMT -0700)
KCAETNA3 | Change Station
CLOSE
Current Station
Personal Weather Station
Location: Island Rd, Scott Valley, CA
Elevation: 2728 ft
Nearby Weather Stations

Elev 2728 ft 41.55 °N, 122.85 °W | Updated 23 seconds ago

Mostly Cloudy
Mostly Cloudy
78.5 °F
Feels Like 78 °F
N
6.0
Wind Variable Wind from West
Gusts 8.0 mph

Today
High -- | Low -- °F
--% Chance of Precip.
Yesterday
High -- | Low -- °F
Precip. -- in
6:34 AM 7:49 PM
Waxing Crescent, 18% visible
Pressure 29.89 in
Visibility 10.0 miles
Clouds Mostly Cloudy 8000 ft
Mostly Cloudy 9000 ft
Heat Index 78 °F
Dew Point 42 °F
Humidity 27%
Rainfall 0.00 in
Snow Depth Not available.
UV 0 out of 12
Pollen 6.50 out of 12
Air Quality Not available.
Flu Activity Not available.
METAR KSIY 300153Z AUTO 02009KT 10SM BKN080 BKN090 27/04 A2992 RMK AO2 SLP121 T02720044

More Conditions Fewer Conditions

Pressure 29.89 in
Visibility 10.0 miles
Clouds Mostly Cloudy 8000 ft
Mostly Cloudy 9000 ft
Heat Index 78 °F
Dew Point 42 °F
Humidity 27%
Rainfall 0.00 in
Snow Depth Not available.
UV 0 out of 12
Pollen 6.50 out of 12
Air Quality Not available.
Flu Activity Not available.
METAR KSIY 300153Z AUTO 02009KT 10SM BKN080 BKN090 27/04 A2992 RMK AO2 SLP121 T02720044

More Conditions Fewer Conditions

10-Day Weather Forecast

Almanac

Astronomy

Aug. 29, 2014 Rise Set
Actual Time 6:34 AM PDT 7:49 PM PDT
Civil Twilight 6:06 AM PDT 8:18 PM PDT
Nautical Twilight 5:31 AM PDT 8:52 PM PDT
Astronomical Twilight 4:55 AM PDT 9:28 PM PDT
Moon 10:33 AM PDT (8/29) 9:46 PM PDT (8/29)
Length of Visible Light 14h 11m
Length of Day
13h 14m
Tomorrow will be 2m 39s shorter.
Waxing Crescent, 18% of the Moon is Illuminated
Today
Waxing Crescent
Sep 2
First Quarter
Sep 8
Full
Sep 15
Last Quarter
Sep 24
New

Today's Extremes

State Highs State Lows

Community

WunderPhotos

Upload Photos

1,748,405 photos uploaded!

Nearby

Snow Depth

Station Depth Elevation
Adin Mountain 0 in 6200 ft
CSS Lab 0 in 6900 ft
Hagan's Meadow 0 in 8000 ft
Monitor Pass 0 in 8350 ft
Summit Meadow 0 in 9122 ft

Earthquake Activity

City Distance Mag. Time & Date
No recent earthquake activity has been reported nearby.
Minimum magnitude displayed is 2.5.

Coastal Water Temperatures

Place Temperature
No Stations Reporting

Nearby Weather Stations